sensor_id;sensor_type;location;lat;lon;timestamp;P1;durP1;ratioP1;P2;durP2;ratioP2
32407;SDS011;18869;55.970;37.502;2023-08-06T00:00:40;25.37;;;18.23;;
32407;SDS011;18869;55.970;37.502;2023-08-06T00:03:08;23.90;;;17.43;;
32407;SDS011;18869;55.970;37.502;2023-08-06T00:05:35;27.53;;;18.63;;
32407;SDS011;18869;55.970;37.502;2023-08-06T00:08:02;29.33;;;18.07;;
32407;SDS011;18869;55.970;37.502;2023-08-06T00:10:29;25.93;;;16.83;;
32407;SDS011;18869;55.970;37.502;2023-08-06T00:12:57;21.80;;;16.20;;
32407;SDS011;18869;55.970;37.502;2023-08-06T00:15:24;21.17;;;17.60;;
32407;SDS011;18869;55.970;37.502;2023-08-06T00:17:52;20.47;;;16.27;;
32407;SDS011;18869;55.970;37.502;2023-08-06T00:20:19;22.40;;;16.57;;
32407;SDS011;18869;55.970;37.502;2023-08-06T00:22:46;21.37;;;16.07;;
32407;SDS011;18869;55.970;37.502;2023-08-06T00:25:13;24.10;;;17.43;;
32407;SDS011;18869;55.970;37.502;2023-08-06T00:27:40;23.93;;;16.23;;
32407;SDS011;18869;55.970;37.502;2023-08-06T00:30:09;23.30;;;17.17;;
32407;SDS011;18869;55.970;37.502;2023-08-06T00:32:38;19.87;;;16.43;;
32407;SDS011;18869;55.970;37.502;2023-08-06T00:35:05;22.97;;;17.63;;
32407;SDS011;18869;55.970;37.502;2023-08-06T00:37:34;22.77;;;15.47;;
32407;SDS011;18869;55.970;37.502;2023-08-06T00:40:01;26.77;;;17.33;;
32407;SDS011;18869;55.970;37.502;2023-08-06T00:42:29;21.33;;;17.00;;
32407;SDS011;18869;55.970;37.502;2023-08-06T00:44:56;27.57;;;16.53;;
32407;SDS011;18869;55.970;37.502;2023-08-06T00:47:24;23.80;;;17.47;;
32407;SDS011;18869;55.970;37.502;2023-08-06T00:49:51;23.17;;;17.13;;
32407;SDS011;18869;55.970;37.502;2023-08-06T00:52:19;25.77;;;17.87;;
32407;SDS011;18869;55.970;37.502;2023-08-06T00:54:46;26.43;;;18.17;;
32407;SDS011;18869;55.970;37.502;2023-08-06T00:57:13;23.17;;;16.47;;
32407;SDS011;18869;55.970;37.502;2023-08-06T00:59:40;22.83;;;16.70;;
32407;SDS011;18869;55.970;37.502;2023-08-06T01:02:08;26.60;;;16.57;;
32407;SDS011;18869;55.970;37.502;2023-08-06T01:04:39;22.87;;;17.50;;
32407;SDS011;18869;55.970;37.502;2023-08-06T01:07:09;27.23;;;16.67;;
32407;SDS011;18869;55.970;37.502;2023-08-06T01:09:44;22.00;;;16.97;;
32407;SDS011;18869;55.970;37.502;2023-08-06T01:12:18;20.20;;;16.50;;
32407;SDS011;18869;55.970;37.502;2023-08-06T01:14:51;29.00;;;16.93;;
32407;SDS011;18869;55.970;37.502;2023-08-06T01:17:21;30.50;;;16.77;;
32407;SDS011;18869;55.970;37.502;2023-08-06T01:19:48;26.27;;;17.77;;
32407;SDS011;18869;55.970;37.502;2023-08-06T01:22:16;23.70;;;17.33;;
32407;SDS011;18869;55.970;37.502;2023-08-06T01:24:44;25.53;;;15.70;;
32407;SDS011;18869;55.970;37.502;2023-08-06T01:27:17;23.47;;;17.10;;
32407;SDS011;18869;55.970;37.502;2023-08-06T01:29:52;20.93;;;16.80;;
32407;SDS011;18869;55.970;37.502;2023-08-06T01:32:22;25.50;;;17.03;;
32407;SDS011;18869;55.970;37.502;2023-08-06T01:34:50;20.70;;;16.27;;
32407;SDS011;18869;55.970;37.502;2023-08-06T01:37:18;24.20;;;16.23;;
32407;SDS011;18869;55.970;37.502;2023-08-06T01:39:45;21.90;;;15.57;;
32407;SDS011;18869;55.970;37.502;2023-08-06T01:42:13;22.93;;;16.33;;
32407;SDS011;18869;55.970;37.502;2023-08-06T01:44:40;25.17;;;17.00;;
32407;SDS011;18869;55.970;37.502;2023-08-06T01:47:06;24.37;;;15.60;;
32407;SDS011;18869;55.970;37.502;2023-08-06T01:49:34;25.80;;;17.17;;
32407;SDS011;18869;55.970;37.502;2023-08-06T01:52:01;19.83;;;15.63;;
32407;SDS011;18869;55.970;37.502;2023-08-06T01:54:28;23.13;;;15.97;;
32407;SDS011;18869;55.970;37.502;2023-08-06T01:56:56;18.30;;;14.93;;
32407;SDS011;18869;55.970;37.502;2023-08-06T01:59:24;22.13;;;15.90;;
32407;SDS011;18869;55.970;37.502;2023-08-06T02:01:51;22.70;;;16.17;;
32407;SDS011;18869;55.970;37.502;2023-08-06T02:04:18;26.43;;;16.23;;
32407;SDS011;18869;55.970;37.502;2023-08-06T02:06:45;21.67;;;16.53;;
32407;SDS011;18869;55.970;37.502;2023-08-06T02:09:12;24.33;;;17.90;;
32407;SDS011;18869;55.970;37.502;2023-08-06T02:11:40;19.90;;;16.10;;
32407;SDS011;18869;55.970;37.502;2023-08-06T02:14:07;23.53;;;15.90;;
32407;SDS011;18869;55.970;37.502;2023-08-06T02:16:34;28.27;;;17.23;;
32407;SDS011;18869;55.970;37.502;2023-08-06T02:19:02;26.07;;;17.60;;
32407;SDS011;18869;55.970;37.502;2023-08-06T02:21:32;19.20;;;15.17;;
32407;SDS011;18869;55.970;37.502;2023-08-06T02:23:59;18.97;;;15.33;;
32407;SDS011;18869;55.970;37.502;2023-08-06T02:26:27;24.93;;;15.97;;
32407;SDS011;18869;55.970;37.502;2023-08-06T02:28:56;16.70;;;14.33;;
32407;SDS011;18869;55.970;37.502;2023-08-06T02:31:23;16.70;;;13.70;;
32407;SDS011;18869;55.970;37.502;2023-08-06T02:33:50;21.17;;;15.80;;
32407;SDS011;18869;55.970;37.502;2023-08-06T02:36:19;23.20;;;15.67;;
32407;SDS011;18869;55.970;37.502;2023-08-06T02:38:47;21.83;;;15.83;;
32407;SDS011;18869;55.970;37.502;2023-08-06T02:41:14;20.50;;;15.57;;
32407;SDS011;18869;55.970;37.502;2023-08-06T02:43:44;17.20;;;14.47;;
32407;SDS011;18869;55.970;37.502;2023-08-06T02:46:12;19.37;;;15.53;;
32407;SDS011;18869;55.970;37.502;2023-08-06T02:48:39;18.80;;;14.83;;
32407;SDS011;18869;55.970;37.502;2023-08-06T02:51:06;20.00;;;15.70;;
32407;SDS011;18869;55.970;37.502;2023-08-06T02:53:34;21.33;;;16.07;;
32407;SDS011;18869;55.970;37.502;2023-08-06T02:56:01;19.47;;;13.70;;
32407;SDS011;18869;55.970;37.502;2023-08-06T02:58:29;18.80;;;14.10;;
32407;SDS011;18869;55.970;37.502;2023-08-06T03:01:01;17.83;;;13.37;;
32407;SDS011;18869;55.970;37.502;2023-08-06T03:03:30;16.30;;;13.47;;
32407;SDS011;18869;55.970;37.502;2023-08-06T03:05:58;20.83;;;13.93;;
32407;SDS011;18869;55.970;37.502;2023-08-06T03:08:26;19.03;;;14.60;;
32407;SDS011;18869;55.970;37.502;2023-08-06T03:10:53;21.83;;;15.53;;
32407;SDS011;18869;55.970;37.502;2023-08-06T03:13:21;21.00;;;15.67;;
32407;SDS011;18869;55.970;37.502;2023-08-06T03:15:52;22.60;;;16.20;;
32407;SDS011;18869;55.970;37.502;2023-08-06T03:18:20;19.70;;;14.40;;
32407;SDS011;18869;55.970;37.502;2023-08-06T03:20:49;18.23;;;14.83;;
32407;SDS011;18869;55.970;37.502;2023-08-06T03:23:17;20.77;;;15.17;;
32407;SDS011;18869;55.970;37.502;2023-08-06T03:25:44;18.07;;;13.93;;
32407;SDS011;18869;55.970;37.502;2023-08-06T03:28:12;19.43;;;14.67;;
32407;SDS011;18869;55.970;37.502;2023-08-06T03:30:41;20.60;;;14.30;;
32407;SDS011;18869;55.970;37.502;2023-08-06T03:33:08;21.83;;;13.27;;
32407;SDS011;18869;55.970;37.502;2023-08-06T03:35:36;19.97;;;14.10;;
32407;SDS011;18869;55.970;37.502;2023-08-06T03:38:04;18.47;;;13.73;;
32407;SDS011;18869;55.970;37.502;2023-08-06T03:40:32;21.20;;;14.40;;
32407;SDS011;18869;55.970;37.502;2023-08-06T03:43:02;19.30;;;12.73;;
32407;SDS011;18869;55.970;37.502;2023-08-06T03:45:29;22.07;;;13.93;;
32407;SDS011;18869;55.970;37.502;2023-08-06T03:47:56;19.67;;;13.60;;
32407;SDS011;18869;55.970;37.502;2023-08-06T03:50:24;19.20;;;12.90;;
32407;SDS011;18869;55.970;37.502;2023-08-06T03:52:51;19.93;;;13.03;;
32407;SDS011;18869;55.970;37.502;2023-08-06T03:55:19;19.20;;;12.77;;
32407;SDS011;18869;55.970;37.502;2023-08-06T03:57:46;16.13;;;12.57;;
32407;SDS011;18869;55.970;37.502;2023-08-06T04:00:13;17.77;;;11.90;;
32407;SDS011;18869;55.970;37.502;2023-08-06T04:02:41;19.27;;;11.27;;
32407;SDS011;18869;55.970;37.502;2023-08-06T04:05:09;19.73;;;12.17;;
32407;SDS011;18869;55.970;37.502;2023-08-06T04:07:36;19.80;;;11.63;;
32407;SDS011;18869;55.970;37.502;2023-08-06T04:10:04;18.50;;;11.37;;
32407;SDS011;18869;55.970;37.502;2023-08-06T04:12:33;16.90;;;11.83;;
32407;SDS011;18869;55.970;37.502;2023-08-06T04:15:03;13.17;;;10.80;;
32407;SDS011;18869;55.970;37.502;2023-08-06T04:17:33;14.47;;;10.87;;
32407;SDS011;18869;55.970;37.502;2023-08-06T04:20:00;15.67;;;9.97;;
32407;SDS011;18869;55.970;37.502;2023-08-06T04:22:29;18.27;;;11.77;;
32407;SDS011;18869;55.970;37.502;2023-08-06T04:24:58;13.00;;;9.23;;
32407;SDS011;18869;55.970;37.502;2023-08-06T04:27:24;13.03;;;9.93;;
32407;SDS011;18869;55.970;37.502;2023-08-06T04:29:52;17.20;;;10.00;;
32407;SDS011;18869;55.970;37.502;2023-08-06T04:32:20;12.13;;;9.10;;
32407;SDS011;18869;55.970;37.502;2023-08-06T04:34:47;14.77;;;8.93;;
32407;SDS011;18869;55.970;37.502;2023-08-06T04:37:15;17.13;;;10.07;;
32407;SDS011;18869;55.970;37.502;2023-08-06T04:39:42;12.27;;;8.63;;
32407;SDS011;18869;55.970;37.502;2023-08-06T04:42:09;12.23;;;7.87;;
32407;SDS011;18869;55.970;37.502;2023-08-06T04:44:37;10.77;;;9.20;;
32407;SDS011;18869;55.970;37.502;2023-08-06T04:47:05;13.13;;;8.73;;
32407;SDS011;18869;55.970;37.502;2023-08-06T04:49:32;9.47;;;8.10;;
32407;SDS011;18869;55.970;37.502;2023-08-06T04:51:59;14.50;;;8.40;;
32407;SDS011;18869;55.970;37.502;2023-08-06T04:54:31;12.97;;;9.13;;
32407;SDS011;18869;55.970;37.502;2023-08-06T04:56:58;11.67;;;8.03;;
32407;SDS011;18869;55.970;37.502;2023-08-06T04:59:30;12.17;;;8.30;;
32407;SDS011;18869;55.970;37.502;2023-08-06T05:01:59;11.70;;;8.70;;
32407;SDS011;18869;55.970;37.502;2023-08-06T05:04:34;12.73;;;8.50;;
32407;SDS011;18869;55.970;37.502;2023-08-06T05:07:05;13.83;;;7.53;;
32407;SDS011;18869;55.970;37.502;2023-08-06T05:09:32;14.57;;;8.50;;
32407;SDS011;18869;55.970;37.502;2023-08-06T05:12:00;12.67;;;8.70;;
32407;SDS011;18869;55.970;37.502;2023-08-06T05:14:28;9.40;;;7.40;;
32407;SDS011;18869;55.970;37.502;2023-08-06T05:16:57;13.20;;;7.70;;
32407;SDS011;18869;55.970;37.502;2023-08-06T05:19:32;12.57;;;8.27;;
32407;SDS011;18869;55.970;37.502;2023-08-06T05:23:06;11.43;;;7.60;;
32407;SDS011;18869;55.970;37.502;2023-08-06T05:25:41;11.77;;;7.30;;
32407;SDS011;18869;55.970;37.502;2023-08-06T05:28:09;12.57;;;7.47;;
32407;SDS011;18869;55.970;37.502;2023-08-06T05:30:39;8.73;;;7.40;;
32407;SDS011;18869;55.970;37.502;2023-08-06T05:33:08;9.23;;;6.87;;
32407;SDS011;18869;55.970;37.502;2023-08-06T05:35:41;9.27;;;6.93;;
32407;SDS011;18869;55.970;37.502;2023-08-06T05:38:08;10.03;;;7.20;;
32407;SDS011;18869;55.970;37.502;2023-08-06T05:41:20;7.57;;;6.87;;
32407;SDS011;18869;55.970;37.502;2023-08-06T05:43:52;9.40;;;6.80;;
32407;SDS011;18869;55.970;37.502;2023-08-06T05:46:33;10.38;;;6.30;;
32407;SDS011;18869;55.970;37.502;2023-08-06T05:49:02;10.30;;;6.10;;
32407;SDS011;18869;55.970;37.502;2023-08-06T05:51:34;13.45;;;6.55;;
32407;SDS011;18869;55.970;37.502;2023-08-06T05:54:02;9.45;;;6.35;;
32407;SDS011;18869;55.970;37.502;2023-08-06T05:56:46;17.05;;;6.37;;
32407;SDS011;18869;55.970;37.502;2023-08-06T05:59:53;10.88;;;5.72;;
32407;SDS011;18869;55.970;37.502;2023-08-06T06:02:23;10.50;;;5.75;;
32407;SDS011;18869;55.970;37.502;2023-08-06T06:05:13;8.25;;;6.07;;
32407;SDS011;18869;55.970;37.502;2023-08-06T06:07:54;9.35;;;5.45;;
32407;SDS011;18869;55.970;37.502;2023-08-06T06:10:22;6.62;;;5.12;;
32407;SDS011;18869;55.970;37.502;2023-08-06T06:12:55;15.52;;;5.70;;
32407;SDS011;18869;55.970;37.502;2023-08-06T06:15:44;8.73;;;5.30;;
32407;SDS011;18869;55.970;37.502;2023-08-06T06:18:25;9.63;;;5.50;;
32407;SDS011;18869;55.970;37.502;2023-08-06T06:21:24;10.55;;;5.95;;
32407;SDS011;18869;55.970;37.502;2023-08-06T06:24:14;7.32;;;5.20;;
32407;SDS011;18869;55.970;37.502;2023-08-06T06:26:43;7.00;;;5.25;;
32407;SDS011;18869;55.970;37.502;2023-08-06T06:29:13;7.22;;;4.87;;
32407;SDS011;18869;55.970;37.502;2023-08-06T06:32:03;7.15;;;4.72;;
32407;SDS011;18869;55.970;37.502;2023-08-06T06:37:22;6.50;;;4.85;;
32407;SDS011;18869;55.970;37.502;2023-08-06T06:39:53;8.38;;;4.75;;
32407;SDS011;18869;55.970;37.502;2023-08-06T06:42:23;5.57;;;5.03;;
32407;SDS011;18869;55.970;37.502;2023-08-06T06:44:56;5.30;;;4.80;;
32407;SDS011;18869;55.970;37.502;2023-08-06T06:51:13;7.22;;;4.80;;
32407;SDS011;18869;55.970;37.502;2023-08-06T06:54:11;5.37;;;4.20;;
32407;SDS011;18869;55.970;37.502;2023-08-06T06:56:46;6.65;;;4.62;;
32407;SDS011;18869;55.970;37.502;2023-08-06T06:59:33;6.87;;;4.87;;
32407;SDS011;18869;55.970;37.502;2023-08-06T07:02:24;5.75;;;4.62;;
32407;SDS011;18869;55.970;37.502;2023-08-06T07:05:05;5.45;;;4.50;;
32407;SDS011;18869;55.970;37.502;2023-08-06T07:08:36;5.55;;;4.57;;
32407;SDS011;18869;55.970;37.502;2023-08-06T07:11:12;6.82;;;4.45;;
32407;SDS011;18869;55.970;37.502;2023-08-06T07:13:44;7.30;;;4.82;;
32407;SDS011;18869;55.970;37.502;2023-08-06T07:16:15;4.62;;;4.15;;
32407;SDS011;18869;55.970;37.502;2023-08-06T07:18:42;8.40;;;4.50;;
32407;SDS011;18869;55.970;37.502;2023-08-06T07:21:21;5.25;;;4.40;;
32407;SDS011;18869;55.970;37.502;2023-08-06T07:24:00;4.80;;;4.10;;
32407;SDS011;18869;55.970;37.502;2023-08-06T07:26:34;4.32;;;3.92;;
32407;SDS011;18869;55.970;37.502;2023-08-06T07:29:33;8.68;;;3.90;;
32407;SDS011;18869;55.970;37.502;2023-08-06T07:32:03;5.07;;;4.35;;
32407;SDS011;18869;55.970;37.502;2023-08-06T07:34:33;6.62;;;4.35;;
32407;SDS011;18869;55.970;37.502;2023-08-06T07:37:09;10.68;;;4.32;;
32407;SDS011;18869;55.970;37.502;2023-08-06T07:39:41;6.72;;;4.60;;
32407;SDS011;18869;55.970;37.502;2023-08-06T07:42:33;5.55;;;4.15;;
32407;SDS011;18869;55.970;37.502;2023-08-06T07:45:32;5.70;;;4.43;;
32407;SDS011;18869;55.970;37.502;2023-08-06T07:48:04;6.57;;;4.43;;
32407;SDS011;18869;55.970;37.502;2023-08-06T07:50:37;6.87;;;4.35;;
32407;SDS011;18869;55.970;37.502;2023-08-06T07:53:24;4.70;;;4.30;;
32407;SDS011;18869;55.970;37.502;2023-08-06T07:56:03;8.10;;;4.32;;
32407;SDS011;18869;55.970;37.502;2023-08-06T07:58:30;4.93;;;3.97;;
32407;SDS011;18869;55.970;37.502;2023-08-06T08:01:07;4.20;;;3.72;;
32407;SDS011;18869;55.970;37.502;2023-08-06T08:03:51;4.22;;;3.83;;
32407;SDS011;18869;55.970;37.502;2023-08-06T08:06:18;4.82;;;3.80;;
32407;SDS011;18869;55.970;37.502;2023-08-06T08:08:54;4.32;;;3.92;;
32407;SDS011;18869;55.970;37.502;2023-08-06T08:11:21;5.00;;;4.22;;
32407;SDS011;18869;55.970;37.502;2023-08-06T08:13:52;5.82;;;4.25;;
32407;SDS011;18869;55.970;37.502;2023-08-06T08:16:27;5.32;;;4.15;;
32407;SDS011;18869;55.970;37.502;2023-08-06T08:19:02;5.45;;;4.40;;
32407;SDS011;18869;55.970;37.502;2023-08-06T08:21:32;5.05;;;4.37;;
32407;SDS011;18869;55.970;37.502;2023-08-06T08:24:08;5.68;;;4.30;;
32407;SDS011;18869;55.970;37.502;2023-08-06T08:26:51;4.07;;;3.70;;
32407;SDS011;18869;55.970;37.502;2023-08-06T08:29:18;5.00;;;4.15;;
32407;SDS011;18869;55.970;37.502;2023-08-06T08:31:52;5.00;;;3.95;;
32407;SDS011;18869;55.970;37.502;2023-08-06T08:34:20;5.47;;;4.40;;
32407;SDS011;18869;55.970;37.502;2023-08-06T08:36:49;7.60;;;4.40;;
32407;SDS011;18869;55.970;37.502;2023-08-06T08:39:23;4.35;;;3.95;;
32407;SDS011;18869;55.970;37.502;2023-08-06T08:41:53;4.43;;;4.03;;
32407;SDS011;18869;55.970;37.502;2023-08-06T08:44:22;6.35;;;4.35;;
32407;SDS011;18869;55.970;37.502;2023-08-06T08:46:55;7.45;;;3.80;;
32407;SDS011;18869;55.970;37.502;2023-08-06T08:49:22;4.30;;;3.87;;
32407;SDS011;18869;55.970;37.502;2023-08-06T08:51:52;4.55;;;4.15;;
32407;SDS011;18869;55.970;37.502;2023-08-06T08:54:22;5.25;;;4.05;;
32407;SDS011;18869;55.970;37.502;2023-08-06T08:56:53;4.40;;;4.03;;
32407;SDS011;18869;55.970;37.502;2023-08-06T08:59:34;6.90;;;4.18;;
32407;SDS011;18869;55.970;37.502;2023-08-06T09:02:04;10.48;;;4.05;;
32407;SDS011;18869;55.970;37.502;2023-08-06T09:04:32;3.83;;;3.53;;
32407;SDS011;18869;55.970;37.502;2023-08-06T09:07:08;5.22;;;3.80;;
32407;SDS011;18869;55.970;37.502;2023-08-06T09:09:40;10.90;;;4.10;;
32407;SDS011;18869;55.970;37.502;2023-08-06T09:12:14;7.65;;;3.67;;
32407;SDS011;18869;55.970;37.502;2023-08-06T09:14:42;7.07;;;4.43;;
32407;SDS011;18869;55.970;37.502;2023-08-06T09:17:14;5.90;;;4.10;;
32407;SDS011;18869;55.970;37.502;2023-08-06T09:19:48;5.25;;;4.18;;
32407;SDS011;18869;55.970;37.502;2023-08-06T09:22:19;4.40;;;4.03;;
32407;SDS011;18869;55.970;37.502;2023-08-06T09:25:06;4.28;;;3.75;;
32407;SDS011;18869;55.970;37.502;2023-08-06T09:27:50;7.93;;;4.47;;
32407;SDS011;18869;55.970;37.502;2023-08-06T09:30:30;5.57;;;3.87;;
32407;SDS011;18869;55.970;37.502;2023-08-06T09:33:06;8.07;;;4.15;;
32407;SDS011;18869;55.970;37.502;2023-08-06T09:35:45;5.00;;;4.50;;
32407;SDS011;18869;55.970;37.502;2023-08-06T09:38:12;4.53;;;4.12;;
32407;SDS011;18869;55.970;37.502;2023-08-06T09:40:41;5.05;;;4.12;;
32407;SDS011;18869;55.970;37.502;2023-08-06T09:43:09;5.90;;;4.50;;
32407;SDS011;18869;55.970;37.502;2023-08-06T09:45:40;4.60;;;3.85;;
32407;SDS011;18869;55.970;37.502;2023-08-06T09:48:14;5.78;;;3.90;;
32407;SDS011;18869;55.970;37.502;2023-08-06T09:50:41;4.47;;;4.12;;
32407;SDS011;18869;55.970;37.502;2023-08-06T09:53:08;6.70;;;4.10;;
32407;SDS011;18869;55.970;37.502;2023-08-06T09:55:40;9.30;;;4.40;;
32407;SDS011;18869;55.970;37.502;2023-08-06T09:58:09;4.57;;;4.15;;
32407;SDS011;18869;55.970;37.502;2023-08-06T10:00:44;6.75;;;4.25;;
32407;SDS011;18869;55.970;37.502;2023-08-06T10:03:14;9.13;;;4.62;;
32407;SDS011;18869;55.970;37.502;2023-08-06T10:05:44;7.25;;;3.65;;
32407;SDS011;18869;55.970;37.502;2023-08-06T10:08:13;7.95;;;3.92;;
32407;SDS011;18869;55.970;37.502;2023-08-06T10:10:41;6.90;;;4.07;;
32407;SDS011;18869;55.970;37.502;2023-08-06T10:13:11;6.05;;;4.40;;
32407;SDS011;18869;55.970;37.502;2023-08-06T10:15:45;8.63;;;4.57;;
32407;SDS011;18869;55.970;37.502;2023-08-06T10:18:23;5.72;;;4.22;;
32407;SDS011;18869;55.970;37.502;2023-08-06T10:20:50;6.35;;;4.65;;
32407;SDS011;18869;55.970;37.502;2023-08-06T10:23:20;6.22;;;4.05;;
32407;SDS011;18869;55.970;37.502;2023-08-06T10:26:02;7.55;;;4.60;;
32407;SDS011;18869;55.970;37.502;2023-08-06T10:28:33;5.20;;;4.37;;
32407;SDS011;18869;55.970;37.502;2023-08-06T10:31:04;8.27;;;4.47;;
32407;SDS011;18869;55.970;37.502;2023-08-06T10:36:18;9.13;;;4.95;;
32407;SDS011;18869;55.970;37.502;2023-08-06T10:38:46;5.47;;;4.75;;
32407;SDS011;18869;55.970;37.502;2023-08-06T10:41:15;8.52;;;5.10;;
32407;SDS011;18869;55.970;37.502;2023-08-06T10:44:05;7.55;;;4.97;;
32407;SDS011;18869;55.970;37.502;2023-08-06T10:46:33;5.03;;;4.53;;
32407;SDS011;18869;55.970;37.502;2023-08-06T10:49:03;10.65;;;5.10;;
32407;SDS011;18869;55.970;37.502;2023-08-06T10:51:30;5.30;;;4.75;;
32407;SDS011;18869;55.970;37.502;2023-08-06T10:54:00;5.50;;;4.55;;
32407;SDS011;18869;55.970;37.502;2023-08-06T10:56:39;8.60;;;5.32;;
32407;SDS011;18869;55.970;37.502;2023-08-06T10:59:21;5.72;;;5.03;;
32407;SDS011;18869;55.970;37.502;2023-08-06T11:02:03;7.50;;;4.90;;
32407;SDS011;18869;55.970;37.502;2023-08-06T11:04:34;11.27;;;4.62;;
32407;SDS011;18869;55.970;37.502;2023-08-06T11:07:13;6.87;;;6.28;;
32407;SDS011;18869;55.970;37.502;2023-08-06T11:09:40;7.32;;;5.00;;
32407;SDS011;18869;55.970;37.502;2023-08-06T11:12:09;7.05;;;4.80;;
32407;SDS011;18869;55.970;37.502;2023-08-06T11:14:39;5.65;;;4.90;;
32407;SDS011;18869;55.970;37.502;2023-08-06T11:17:12;5.45;;;4.90;;
32407;SDS011;18869;55.970;37.502;2023-08-06T11:19:41;5.37;;;4.85;;
32407;SDS011;18869;55.970;37.502;2023-08-06T11:22:08;6.93;;;5.65;;
32407;SDS011;18869;55.970;37.502;2023-08-06T11:24:37;11.85;;;5.25;;
32407;SDS011;18869;55.970;37.502;2023-08-06T11:27:10;9.38;;;5.37;;
32407;SDS011;18869;55.970;37.502;2023-08-06T11:29:39;6.68;;;5.07;;
32407;SDS011;18869;55.970;37.502;2023-08-06T11:32:11;9.50;;;5.25;;
32407;SDS011;18869;55.970;37.502;2023-08-06T11:34:40;6.15;;;4.85;;
32407;SDS011;18869;55.970;37.502;2023-08-06T11:37:10;7.82;;;5.22;;
32407;SDS011;18869;55.970;37.502;2023-08-06T11:39:47;9.40;;;5.15;;
32407;SDS011;18869;55.970;37.502;2023-08-06T11:42:14;11.93;;;4.90;;
32407;SDS011;18869;55.970;37.502;2023-08-06T11:44:42;5.53;;;5.03;;
32407;SDS011;18869;55.970;37.502;2023-08-06T11:47:14;5.85;;;5.25;;
32407;SDS011;18869;55.970;37.502;2023-08-06T11:49:45;6.78;;;5.07;;
32407;SDS011;18869;55.970;37.502;2023-08-06T11:52:15;5.50;;;5.00;;
32407;SDS011;18869;55.970;37.502;2023-08-06T11:54:46;5.50;;;4.45;;
32407;SDS011;18869;55.970;37.502;2023-08-06T11:57:14;6.35;;;4.70;;
32407;SDS011;18869;55.970;37.502;2023-08-06T11:59:43;6.12;;;5.00;;
32407;SDS011;18869;55.970;37.502;2023-08-06T12:02:12;5.82;;;4.93;;
32407;SDS011;18869;55.970;37.502;2023-08-06T12:05:00;7.50;;;5.22;;
32407;SDS011;18869;55.970;37.502;2023-08-06T12:07:31;5.78;;;4.95;;
32407;SDS011;18869;55.970;37.502;2023-08-06T12:09:59;9.70;;;5.65;;
32407;SDS011;18869;55.970;37.502;2023-08-06T12:12:30;6.97;;;5.20;;
32407;SDS011;18869;55.970;37.502;2023-08-06T12:14:59;7.40;;;5.03;;
32407;SDS011;18869;55.970;37.502;2023-08-06T12:17:28;8.90;;;5.30;;
32407;SDS011;18869;55.970;37.502;2023-08-06T12:19:55;9.30;;;4.80;;
32407;SDS011;18869;55.970;37.502;2023-08-06T12:22:36;5.93;;;4.50;;
32407;SDS011;18869;55.970;37.502;2023-08-06T12:25:12;7.95;;;5.40;;
32407;SDS011;18869;55.970;37.502;2023-08-06T12:27:40;5.85;;;4.60;;
32407;SDS011;18869;55.970;37.502;2023-08-06T12:30:10;5.87;;;4.95;;
32407;SDS011;18869;55.970;37.502;2023-08-06T12:32:40;6.35;;;4.60;;
32407;SDS011;18869;55.970;37.502;2023-08-06T12:35:10;8.15;;;4.32;;
32407;SDS011;18869;55.970;37.502;2023-08-06T12:37:43;5.18;;;4.68;;
32407;SDS011;18869;55.970;37.502;2023-08-06T12:40:24;4.40;;;4.00;;
32407;SDS011;18869;55.970;37.502;2023-08-06T12:42:54;5.00;;;4.50;;
32407;SDS011;18869;55.970;37.502;2023-08-06T12:45:24;5.97;;;4.57;;
32407;SDS011;18869;55.970;37.502;2023-08-06T12:47:51;8.57;;;4.85;;
32407;SDS011;18869;55.970;37.502;2023-08-06T12:50:24;6.35;;;4.53;;
32407;SDS011;18869;55.970;37.502;2023-08-06T12:52:56;7.30;;;4.93;;
32407;SDS011;18869;55.970;37.502;2023-08-06T12:55:33;10.30;;;4.60;;
32407;SDS011;18869;55.970;37.502;2023-08-06T12:58:35;7.15;;;5.15;;
32407;SDS011;18869;55.970;37.502;2023-08-06T13:01:13;9.27;;;5.00;;
32407;SDS011;18869;55.970;37.502;2023-08-06T13:03:55;6.75;;;5.28;;
32407;SDS011;18869;55.970;37.502;2023-08-06T13:06:34;6.55;;;4.50;;
32407;SDS011;18869;55.970;37.502;2023-08-06T13:09:15;6.37;;;5.00;;
32407;SDS011;18869;55.970;37.502;2023-08-06T13:12:12;6.97;;;4.87;;
32407;SDS011;18869;55.970;37.502;2023-08-06T13:15:04;7.28;;;5.25;;
32407;SDS011;18869;55.970;37.502;2023-08-06T13:17:46;10.98;;;5.20;;
32407;SDS011;18869;55.970;37.502;2023-08-06T13:20:37;6.07;;;4.50;;
32407;SDS011;18869;55.970;37.502;2023-08-06T13:23:12;5.50;;;4.53;;
32407;SDS011;18869;55.970;37.502;2023-08-06T13:25:43;7.50;;;4.55;;
32407;SDS011;18869;55.970;37.502;2023-08-06T13:28:10;5.93;;;4.37;;
32407;SDS011;18869;55.970;37.502;2023-08-06T13:30:39;5.85;;;4.55;;
32407;SDS011;18869;55.970;37.502;2023-08-06T13:33:11;5.45;;;4.78;;
32407;SDS011;18869;55.970;37.502;2023-08-06T13:35:40;9.48;;;4.93;;
32407;SDS011;18869;55.970;37.502;2023-08-06T13:38:09;4.80;;;3.95;;
32407;SDS011;18869;55.970;37.502;2023-08-06T13:40:40;6.47;;;5.22;;
32407;SDS011;18869;55.970;37.502;2023-08-06T13:43:21;7.10;;;4.32;;
32407;SDS011;18869;55.970;37.502;2023-08-06T13:46:04;6.03;;;4.28;;
32407;SDS011;18869;55.970;37.502;2023-08-06T13:48:40;7.03;;;4.72;;
32407;SDS011;18869;55.970;37.502;2023-08-06T13:51:11;4.93;;;4.43;;
32407;SDS011;18869;55.970;37.502;2023-08-06T13:53:41;7.80;;;4.50;;
32407;SDS011;18869;55.970;37.502;2023-08-06T13:56:13;6.65;;;4.53;;
32407;SDS011;18869;55.970;37.502;2023-08-06T13:58:44;8.02;;;4.85;;
32407;SDS011;18869;55.970;37.502;2023-08-06T14:01:19;6.32;;;4.35;;
32407;SDS011;18869;55.970;37.502;2023-08-06T14:04:15;8.80;;;5.20;;
32407;SDS011;18869;55.970;37.502;2023-08-06T14:06:56;7.45;;;5.55;;
32407;SDS011;18869;55.970;37.502;2023-08-06T14:09:31;9.40;;;4.78;;
32407;SDS011;18869;55.970;37.502;2023-08-06T14:12:14;6.65;;;4.70;;
32407;SDS011;18869;55.970;37.502;2023-08-06T14:14:55;5.55;;;5.00;;
32407;SDS011;18869;55.970;37.502;2023-08-06T14:17:24;4.82;;;4.18;;
32407;SDS011;18869;55.970;37.502;2023-08-06T14:19:52;7.32;;;4.70;;
32407;SDS011;18869;55.970;37.502;2023-08-06T14:22:27;7.80;;;4.62;;
32407;SDS011;18869;55.970;37.502;2023-08-06T14:25:16;7.10;;;4.80;;
32407;SDS011;18869;55.970;37.502;2023-08-06T14:27:43;8.07;;;4.55;;
32407;SDS011;18869;55.970;37.502;2023-08-06T14:30:13;5.65;;;4.75;;
32407;SDS011;18869;55.970;37.502;2023-08-06T14:32:42;10.55;;;5.55;;
32407;SDS011;18869;55.970;37.502;2023-08-06T14:35:12;10.00;;;4.57;;
32407;SDS011;18869;55.970;37.502;2023-08-06T14:38:14;5.62;;;4.75;;
32407;SDS011;18869;55.970;37.502;2023-08-06T14:40:43;6.55;;;5.28;;
32407;SDS011;18869;55.970;37.502;2023-08-06T14:43:18;8.88;;;5.68;;
32407;SDS011;18869;55.970;37.502;2023-08-06T14:45:55;8.13;;;4.80;;
32407;SDS011;18869;55.970;37.502;2023-08-06T14:48:24;6.68;;;5.32;;
32407;SDS011;18869;55.970;37.502;2023-08-06T14:50:52;10.35;;;6.22;;
32407;SDS011;18869;55.970;37.502;2023-08-06T14:53:19;8.13;;;5.80;;
32407;SDS011;18869;55.970;37.502;2023-08-06T14:55:46;9.55;;;6.57;;
32407;SDS011;18869;55.970;37.502;2023-08-06T14:58:20;5.70;;;5.05;;
32407;SDS011;18869;55.970;37.502;2023-08-06T15:00:53;8.80;;;4.93;;
32407;SDS011;18869;55.970;37.502;2023-08-06T15:03:22;7.00;;;4.60;;
32407;SDS011;18869;55.970;37.502;2023-08-06T15:05:51;8.32;;;5.15;;